Time;durP1;ratioP1;P1;durP2;ratioP2;P2;SDS_P1;SDS_P2;PMS_P1;PMS_P2;Temp;Humidity;BMP_temperature;BMP_pressure;BME280_temperature;BME280_humidity;BME280_pressure;Samples;Min_cycle;Max_cycle;Signal;HPM_P1;HPM_P2
2021/06/26 00:01:13;;;;;;;24.35;5.13;;;;;;;25.50;49.20;93858.69;5092329;28;20024;-81
2021/06/26 00:03:41;;;;;;;27.55;4.82;;;;;;;25.46;49.18;93860.66;5080873;28;20037;-80
2021/06/26 00:06:06;;;;;;;30.27;6.15;;;;;;;25.43;48.83;93863.03;5077859;28;20028;-80
2021/06/26 00:08:32;;;;;;;22.63;6.47;;;;;;;25.47;49.22;93865.72;5072280;28;20483;-80
2021/06/26 00:10:57;;;;;;;30.85;5.53;;;;;;;25.47;48.83;93867.69;5072069;28;20024;-80
2021/06/26 00:13:24;;;;;;;36.95;5.05;;;;;;;25.45;49.21;93864.59;5087333;28;20048;-80
2021/06/26 00:15:51;;;;;;;25.23;4.57;;;;;;;25.47;49.61;93870.41;5072355;28;20025;-79
2021/06/26 00:18:16;;;;;;;26.15;5.85;;;;;;;25.47;49.77;93870.41;5072370;28;20518;-80
2021/06/26 00:20:45;;;;;;;22.30;5.05;;;;;;;25.46;49.65;93855.97;5073038;28;20025;-80
2021/06/26 00:23:11;;;;;;;26.20;5.85;;;;;;;25.45;49.36;93870.06;5074826;28;20033;-81
2021/06/26 00:25:37;;;;;;;25.58;5.30;;;;;;;25.43;49.55;93878.63;5075259;28;20054;-80
2021/06/26 00:28:02;;;;;;;22.80;4.07;;;;;;;25.41;49.29;93870.84;5086039;28;20048;-80
2021/06/26 00:30:28;;;;;;;21.50;4.40;;;;;;;25.44;50.31;93877.44;5085824;28;20041;-80
2021/06/26 00:32:56;;;;;;;23.85;4.95;;;;;;;25.42;49.02;93866.16;5083060;28;20013;-80
2021/06/26 00:35:22;;;;;;;30.33;5.43;;;;;;;25.40;49.71;93874.78;5081054;28;20053;-80
2021/06/26 00:37:47;;;;;;;19.58;4.72;;;;;;;25.41;49.46;93870.84;5074964;28;20420;-80
2021/06/26 00:40:13;;;;;;;26.58;4.97;;;;;;;25.42;49.16;93875.16;5089429;28;20400;-80
2021/06/26 00:42:42;;;;;;;24.73;5.50;;;;;;;25.40;48.89;93869.31;5078969;28;20088;-80
2021/06/26 00:45:10;;;;;;;21.95;5.53;;;;;;;25.41;48.95;93868.13;5086588;28;20025;-80
2021/06/26 00:47:37;;;;;;;33.33;5.47;;;;;;;25.40;48.82;93879.44;5069376;28;20046;-81
2021/06/26 00:50:04;;;;;;;32.42;5.25;;;;;;;25.38;49.61;93871.69;5059478;28;20025;-81
2021/06/26 00:52:29;;;;;;;33.13;6.35;;;;;;;25.35;49.81;93872.47;5060093;28;20031;-80
2021/06/26 00:54:55;;;;;;;20.50;5.90;;;;;;;25.28;50.14;93861.66;5062414;28;20060;-81
2021/06/26 00:57:20;;;;;;;22.33;4.72;;;;;;;25.24;51.05;93863.66;5062918;28;20120;-80
2021/06/26 00:59:50;;;;;;;22.15;4.82;;;;;;;25.24;51.58;93858.22;5066848;28;20029;-81
2021/06/26 01:02:15;;;;;;;19.92;4.80;;;;;;;25.19;51.74;93864.84;5061937;28;20033;-80
2021/06/26 01:04:41;;;;;;;29.52;5.70;;;;;;;25.12;51.97;93847.78;5059095;28;20025;-76
2021/06/26 01:07:07;;;;;;;21.95;5.18;;;;;;;25.08;51.85;93850.56;5056168;28;20085;-76
2021/06/26 01:09:32;;;;;;;26.35;4.45;;;;;;;25.03;52.08;93835.41;5058259;28;20028;-76
2021/06/26 01:11:58;;;;;;;26.17;4.50;;;;;;;24.97;52.11;93841.69;5059610;28;20061;-75
2021/06/26 01:14:28;;;;;;;25.70;5.30;;;;;;;24.91;52.24;93835.91;5056522;28;20131;-75
2021/06/26 01:16:53;;;;;;;26.15;5.72;;;;;;;24.86;52.42;93828.19;5063833;28;20029;-75
2021/06/26 01:19:19;;;;;;;21.25;4.65;;;;;;;24.78;53.04;93824.75;5058493;28;20036;-77
2021/06/26 01:21:44;;;;;;;28.67;5.43;;;;;;;24.72;52.13;93817.44;5062648;28;20066;-77
2021/06/26 01:24:10;;;;;;;32.60;5.20;;;;;;;24.59;52.84;93809.75;5061280;28;20118;-77
2021/06/26 01:26:36;;;;;;;34.40;5.13;;;;;;;24.50;53.02;93820.34;5066166;28;20116;-77
2021/06/26 01:29:09;;;;;;;26.02;5.05;;;;;;;24.43;53.01;93806.78;5065903;28;20024;-77
2021/06/26 01:31:34;;;;;;;25.48;5.55;;;;;;;24.39;53.87;93804.06;5062977;28;20054;-76
2021/06/26 01:34:00;;;;;;;28.70;8.05;;;;;;;24.37;53.72;93816.56;5067637;28;20020;-75
2021/06/26 01:36:25;;;;;;;24.88;5.07;;;;;;;24.30;54.04;93813.88;5070286;28;20021;-76
2021/06/26 01:38:55;;;;;;;21.88;4.88;;;;;;;24.24;53.77;93824.41;5066188;28;20035;-77
2021/06/26 01:41:22;;;;;;;28.83;5.55;;;;;;;24.22;53.67;93826.75;5059351;28;20027;-77
2021/06/26 01:43:47;;;;;;;23.83;5.88;;;;;;;24.23;53.79;93836.50;5063820;28;20017;-76
2021/06/26 01:46:12;;;;;;;25.17;5.38;;;;;;;24.20;53.97;93840.00;5065902;28;20455;-76
2021/06/26 01:48:38;;;;;;;23.90;5.45;;;;;;;24.17;55.08;93852.47;5064268;28;20021;-77
2021/06/26 01:51:03;;;;;;;26.67;6.80;;;;;;;24.16;55.22;93850.94;5059654;28;20021;-76
2021/06/26 01:53:29;;;;;;;23.10;5.03;;;;;;;24.16;55.29;93856.38;5067362;28;20059;-77
2021/06/26 01:55:54;;;;;;;35.00;6.75;;;;;;;24.10;55.28;93868.09;5067176;28;20637;-76
2021/06/26 01:58:20;;;;;;;33.83;7.78;;;;;;;24.04;55.59;93859.59;5062010;28;20021;-78
2021/06/26 02:00:46;;;;;;;28.27;6.50;;;;;;;23.97;55.76;93862.34;5061111;28;20036;-76
2021/06/26 02:03:11;;;;;;;24.98;5.28;;;;;;;23.89;55.58;93861.59;5068167;28;20123;-77
2021/06/26 02:05:36;;;;;;;26.58;6.38;;;;;;;23.79;55.61;93865.97;5061196;28;20024;-77
2021/06/26 02:08:02;;;;;;;27.40;6.03;;;;;;;23.81;55.45;93870.97;5067379;28;20526;-77
2021/06/26 02:10:27;;;;;;;20.55;5.93;;;;;;;23.80;55.29;93870.22;5057922;28;20032;-76
2021/06/26 02:12:53;;;;;;;27.88;5.47;;;;;;;23.76;55.37;93869.44;5063267;28;20108;-76
2021/06/26 02:15:18;;;;;;;26.58;5.97;;;;;;;23.70;55.22;93873.72;5058803;28;20107;-76
2021/06/26 02:17:44;;;;;;;28.40;6.68;;;;;;;23.65;55.10;93868.72;5058214;28;20393;-76
2021/06/26 02:20:09;;;;;;;26.20;6.95;;;;;;;23.61;55.57;93865.22;5066358;28;20020;-76
2021/06/26 02:22:35;;;;;;;27.67;5.45;;;;;;;23.47;55.86;93874.25;5056691;28;20028;-76
2021/06/26 02:25:05;;;;;;;28.70;7.35;;;;;;;23.44;55.91;93872.28;5065252;28;20028;-76
2021/06/26 02:27:31;;;;;;;28.83;6.20;;;;;;;23.41;55.66;93867.66;5061149;28;20017;-76
2021/06/26 02:29:56;;;;;;;24.88;5.82;;;;;;;23.35;57.15;93870.00;5060641;28;20040;-77
2021/06/26 02:32:21;;;;;;;23.90;5.68;;;;;;;23.28;57.29;93880.88;5056482;28;20025;-76
2021/06/26 02:34:47;;;;;;;26.48;5.47;;;;;;;23.24;56.34;93869.25;5062123;28;20035;-76
2021/06/26 02:37:12;;;;;;;31.60;5.28;;;;;;;23.28;56.35;93870.00;5061791;28;20549;-76
2021/06/26 02:39:37;;;;;;;20.85;5.30;;;;;;;23.19;56.33;93858.78;5057267;28;20048;-76
2021/06/26 02:42:03;;;;;;;30.40;5.45;;;;;;;23.20;56.68;93852.16;5065937;28;20079;-76
2021/06/26 02:44:29;;;;;;;34.78;5.65;;;;;;;23.12;56.37;93839.78;5061961;28;20024;-77
2021/06/26 02:46:54;;;;;;;32.65;6.25;;;;;;;23.07;56.63;93837.47;5063758;28;20025;-77
2021/06/26 02:49:19;;;;;;;22.52;5.75;;;;;;;23.02;56.84;93839.44;5058311;28;20063;-77
2021/06/26 02:51:45;;;;;;;29.55;6.07;;;;;;;23.01;57.10;93839.78;5056114;28;20120;-79
2021/06/26 02:54:10;;;;;;;26.30;5.10;;;;;;;23.02;57.59;93847.59;5060456;28;20466;-77
2021/06/26 02:56:36;;;;;;;37.72;6.63;;;;;;;22.99;57.59;93842.88;5060987;28;20033;-77
2021/06/26 02:59:01;;;;;;;22.10;5.22;;;;;;;23.02;57.85;93836.72;5058770;28;20025;-77
2021/06/26 03:01:27;;;;;;;20.55;5.57;;;;;;;22.98;58.11;93830.47;5061929;28;20381;-77
2021/06/26 03:03:52;;;;;;;19.88;6.00;;;;;;;22.89;57.97;93824.66;5056862;28;20055;-76
2021/06/26 03:06:17;;;;;;;28.23;6.13;;;;;;;22.88;58.29;93834.00;5060073;28;20033;-76
2021/06/26 03:08:43;;;;;;;28.92;6.65;;;;;;;22.83;58.23;93834.38;5065362;28;20039;-76
2021/06/26 03:11:08;;;;;;;28.50;7.88;;;;;;;22.80;58.22;93832.47;5064899;28;20484;-76
2021/06/26 03:13:34;;;;;;;36.72;5.07;;;;;;;22.79;58.31;93833.63;5062150;28;20045;-76
2021/06/26 03:15:59;;;;;;;24.77;5.93;;;;;;;22.78;59.17;93842.94;5066761;28;20037;-77
2021/06/26 03:18:24;;;;;;;23.80;6.53;;;;;;;22.70;59.16;93847.63;5052946;28;20028;-77
2021/06/26 03:20:50;;;;;;;34.35;6.60;;;;;;;22.63;59.04;93851.13;5061086;28;20024;-76
2021/06/26 03:23:15;;;;;;;22.08;5.38;;;;;;;22.64;58.92;93852.66;5061005;28;20107;-76
2021/06/26 03:25:41;;;;;;;33.97;6.50;;;;;;;22.62;59.42;93846.06;5064718;28;20048;-76
2021/06/26 03:28:06;;;;;;;35.60;7.43;;;;;;;22.57;59.96;93839.09;5060710;28;20029;-77
2021/06/26 03:30:31;;;;;;;29.00;6.10;;;;;;;22.53;60.19;93843.75;5059677;28;20028;-77
2021/06/26 03:32:57;;;;;;;26.83;5.68;;;;;;;22.53;59.58;93838.34;5059252;28;20036;-77
2021/06/26 03:35:22;;;;;;;25.08;5.93;;;;;;;22.53;59.89;93832.91;5062129;28;20134;-76
2021/06/26 03:37:48;;;;;;;29.55;6.22;;;;;;;22.54;60.16;93842.59;5056346;28;20070;-76
2021/06/26 03:40:13;;;;;;;29.52;5.88;;;;;;;22.54;59.42;93844.53;5065291;28;20104;-76
2021/06/26 03:42:39;;;;;;;30.13;6.85;;;;;;;22.60;60.31;93845.69;5063825;28;20134;-77
2021/06/26 03:45:07;;;;;;;33.20;6.50;;;;;;;22.56;60.46;93848.41;5056294;28;20029;-77
2021/06/26 03:47:32;;;;;;;24.52;6.35;;;;;;;22.59;60.04;93847.63;5062656;28;20571;-76
2021/06/26 03:49:58;;;;;;;28.17;5.43;;;;;;;22.63;60.45;93853.84;5066146;28;20553;-76
2021/06/26 03:52:23;;;;;;;33.05;6.90;;;;;;;22.66;60.20;93852.28;5056477;28;20033;-76
2021/06/26 03:54:49;;;;;;;24.20;6.57;;;;;;;22.74;60.13;93863.91;5070670;28;20111;-76
2021/06/26 03:57:14;;;;;;;30.85;5.90;;;;;;;22.79;60.06;93872.44;5057686;28;20143;-76
2021/06/26 03:59:40;;;;;;;31.17;7.88;;;;;;;22.83;60.08;93875.91;5068122;28;20032;-76
2021/06/26 04:02:08;;;;;;;39.22;5.97;;;;;;;22.90;59.49;93875.16;5055815;28;20032;-76
2021/06/26 04:04:35;;;;;;;28.30;7.13;;;;;;;22.97;60.20;93880.56;5065650;28;20498;-76
2021/06/26 04:07:01;;;;;;;19.70;5.38;;;;;;;23.04;58.58;93882.53;5051855;28;20405;-76
2021/06/26 04:09:27;;;;;;;21.48;4.88;;;;;;;23.13;56.33;93884.84;5057433;28;20085;-76
2021/06/26 04:11:52;;;;;;;27.90;5.80;;;;;;;23.24;56.17;93896.44;5063826;28;20028;-76
2021/06/26 04:14:17;;;;;;;33.53;5.72;;;;;;;23.33;57.39;93899.53;5064472;28;20071;-76
2021/06/26 04:16:43;;;;;;;24.90;5.97;;;;;;;23.39;56.67;93897.19;5065599;28;20017;-76
2021/06/26 04:19:08;;;;;;;35.75;5.65;;;;;;;23.51;57.46;93899.47;5062802;28;20090;-76
2021/06/26 04:21:34;;;;;;;19.98;5.50;;;;;;;23.55;57.39;93894.00;5055894;28;20021;-74
2021/06/26 04:23:59;;;;;;;43.28;6.38;;;;;;;23.63;56.20;93890.09;5061505;28;20119;-74
2021/06/26 04:26:24;;;;;;;35.17;6.25;;;;;;;23.68;56.52;93897.84;5058710;28;20488;-74
2021/06/26 04:28:51;;;;;;;37.40;6.13;;;;;;;23.74;55.52;93885.38;5060086;28;20025;-74
2021/06/26 04:31:16;;;;;;;36.33;7.10;;;;;;;23.79;56.04;93889.66;5063334;28;20048;-74
2021/06/26 04:33:41;;;;;;;25.05;5.63;;;;;;;23.88;55.93;93887.28;5061667;28;20025;-74
2021/06/26 04:36:12;;;;;;;32.83;6.55;;;;;;;23.90;56.33;93893.09;5057669;28;20024;-74
2021/06/26 04:38:38;;;;;;;22.98;5.65;;;;;;;23.99;55.32;93885.25;5060482;28;20031;-74
2021/06/26 04:41:03;;;;;;;36.03;7.25;;;;;;;24.05;56.03;93882.91;5058692;28;20028;-74
2021/06/26 04:43:28;;;;;;;27.95;5.78;;;;;;;24.13;56.30;93880.91;5064003;28;20454;-74
2021/06/26 04:45:54;;;;;;;30.55;6.30;;;;;;;24.19;55.44;93877.34;5052864;28;20021;-75
2021/06/26 04:48:20;;;;;;;29.30;6.03;;;;;;;24.29;54.57;93888.59;5063931;28;20035;-73
2021/06/26 04:50:47;;;;;;;39.40;6.53;;;;;;;24.32;54.45;93891.31;5055799;28;20029;-73
2021/06/26 04:53:12;;;;;;;31.83;6.07;;;;;;;24.39;54.94;93885.78;5060619;28;20025;-73
2021/06/26 04:55:37;;;;;;;30.33;6.20;;;;;;;24.46;54.84;93900.53;5062131;28;20387;-73
2021/06/26 04:58:03;;;;;;;37.38;8.48;;;;;;;24.56;55.10;93905.16;5071071;28;20020;-70
2021/06/26 05:00:28;;;;;;;27.60;5.72;;;;;;;24.65;54.89;93897.31;5072253;28;20078;-71
2021/06/26 05:02:54;;;;;;;21.67;4.88;;;;;;;24.71;54.51;93894.91;5073694;28;20464;-71
2021/06/26 05:05:19;;;;;;;34.50;7.30;;;;;;;24.77;55.09;93902.25;5073457;28;20082;-70
2021/06/26 05:07:45;;;;;;;31.52;6.65;;;;;;;24.78;55.45;93903.78;5073337;28;20096;-71
2021/06/26 05:10:11;;;;;;;34.47;6.30;;;;;;;24.87;54.52;93897.88;5063864;28;20029;-70
2021/06/26 05:12:36;;;;;;;40.17;7.00;;;;;;;24.93;53.77;93900.94;5055325;28;20052;-70
2021/06/26 05:15:02;;;;;;;29.25;5.78;;;;;;;24.95;53.72;93896.66;5073058;28;20472;-71
2021/06/26 05:17:28;;;;;;;29.83;8.02;;;;;;;25.00;53.75;93898.16;5065853;28;20029;-62
2021/06/26 05:19:53;;;;;;;38.25;7.43;;;;;;;24.98;53.46;93893.09;5053593;28;20025;-62
2021/06/26 05:22:18;;;;;;;29.88;5.88;;;;;;;25.04;53.27;93888.00;5056381;28;20439;-62
2021/06/26 05:24:44;;;;;;;41.20;6.95;;;;;;;25.05;52.95;93891.47;5073390;28;20053;-62
2021/06/26 05:27:09;;;;;;;45.40;6.65;;;;;;;25.06;52.08;93887.59;5071820;28;20023;-62
2021/06/26 05:29:40;;;;;;;27.50;6.25;;;;;;;24.99;52.81;93889.22;5067329;28;20037;-63
2021/06/26 05:32:06;;;;;;;36.05;8.23;;;;;;;24.98;53.01;93898.56;5052111;28;20035;-62
2021/06/26 05:34:32;;;;;;;29.90;5.60;;;;;;;24.93;53.29;93887.31;5052596;28;20407;-63
2021/06/26 05:36:57;;;;;;;38.05;8.07;;;;;;;24.87;53.39;93897.09;5052365;28;20162;-62
2021/06/26 05:39:22;;;;;;;36.17;6.70;;;;;;;24.83;52.61;93897.13;5052669;28;20409;-62
2021/06/26 05:41:48;;;;;;;27.00;6.57;;;;;;;24.82;53.09;93898.31;5052284;28;20033;-61
2021/06/26 05:44:13;;;;;;;37.13;7.28;;;;;;;24.76;53.49;93903.41;5052397;28;20017;-62
2021/06/26 05:46:39;;;;;;;40.72;7.97;;;;;;;24.83;53.12;93906.09;5062349;28;20061;-61
2021/06/26 05:49:04;;;;;;;31.88;6.80;;;;;;;24.96;52.77;93902.88;5063698;28;20028;-62
2021/06/26 05:51:31;;;;;;;35.47;7.13;;;;;;;25.06;52.73;93917.59;5064026;28;20020;-61
2021/06/26 05:53:56;;;;;;;34.78;9.15;;;;;;;25.17;52.78;93913.56;5072252;28;20467;-62
2021/06/26 05:56:21;;;;;;;29.60;7.38;;;;;;;25.26;54.12;93913.13;5072347;28;20017;-62
2021/06/26 05:58:47;;;;;;;28.25;9.52;;;;;;;25.40;54.13;93912.19;5072637;28;20480;-62
2021/06/26 06:01:12;;;;;;;31.73;7.97;;;;;;;25.50;53.71;93921.44;5072385;28;20027;-62
2021/06/26 06:03:39;;;;;;;36.85;9.10;;;;;;;25.53;52.88;93910.47;5072031;28;20046;-62
2021/06/26 06:06:05;;;;;;;32.65;9.00;;;;;;;25.60;52.72;93907.69;5068648;28;20021;-62
2021/06/26 06:08:31;;;;;;;33.00;7.85;;;;;;;25.69;52.71;93911.88;5057665;28;20038;-61
2021/06/26 06:10:56;;;;;;;26.77;7.95;;;;;;;25.78;51.80;93904.72;5072282;28;20016;-61
2021/06/26 06:13:22;;;;;;;38.53;8.02;;;;;;;25.89;51.37;93899.13;5071791;28;20078;-61
2021/06/26 06:15:50;;;;;;;32.72;7.40;;;;;;;25.95;51.55;93896.72;5052073;28;20029;-61
2021/06/26 06:18:17;;;;;;;27.83;7.93;;;;;;;26.05;51.37;93889.59;5051796;28;20056;-62
2021/06/26 06:20:43;;;;;;;32.10;7.82;;;;;;;26.16;51.06;93899.19;5052185;28;20036;-61
2021/06/26 06:23:09;;;;;;;29.52;7.85;;;;;;;26.24;51.31;93897.13;5052142;28;20104;-62
2021/06/26 06:25:36;;;;;;;32.47;6.68;;;;;;;26.34;50.39;93889.97;5051578;28;20115;-62
2021/06/26 06:28:02;;;;;;;35.90;7.75;;;;;;;26.47;50.42;93903.81;5051997;28;20025;-61
2021/06/26 06:30:30;;;;;;;34.45;7.00;;;;;;;26.55;50.06;93900.56;5051999;28;20032;-62
2021/06/26 06:33:00;;;;;;;32.47;7.43;;;;;;;26.67;49.34;93909.41;5052059;28;20050;-61
2021/06/26 06:35:26;;;;;;;31.63;7.20;;;;;;;26.71;48.77;93897.22;5054857;28;20471;-62
2021/06/26 06:37:52;;;;;;;31.58;6.85;;;;;;;26.79;48.10;93898.63;5071571;28;20028;-60
2021/06/26 06:40:18;;;;;;;41.35;6.30;;;;;;;26.86;48.28;93897.75;5071638;28;20047;-62
2021/06/26 06:42:44;;;;;;;27.45;7.18;;;;;;;26.93;47.93;93892.16;5050166;28;20033;-61
2021/06/26 06:45:11;;;;;;;26.48;6.50;;;;;;;27.02;47.67;93897.84;5051829;28;20120;-62
2021/06/26 06:47:37;;;;;;;42.50;8.50;;;;;;;27.08;47.90;93886.44;5051993;28;20384;-62
2021/06/26 06:50:04;;;;;;;33.30;6.63;;;;;;;27.20;47.03;93888.56;5051747;28;20055;-61
2021/06/26 06:52:30;;;;;;;41.80;7.60;;;;;;;27.28;45.62;93895.47;5057084;28;20021;-61
2021/06/26 06:54:55;;;;;;;31.77;7.00;;;;;;;27.28;44.58;93900.94;5050601;28;20481;-62
2021/06/26 06:57:23;;;;;;;28.67;6.53;;;;;;;27.31;44.99;93897.34;5051589;28;20036;-61
2021/06/26 06:59:50;;;;;;;30.13;6.30;;;;;;;27.38;44.90;93889.03;5055796;28;20046;-62
2021/06/26 07:02:15;;;;;;;27.35;5.97;;;;;;;27.43;44.30;93885.03;5071324;28;20033;-61
2021/06/26 07:04:41;;;;;;;39.55;5.80;;;;;;;27.52;43.37;93884.44;5061438;28;20028;-62
2021/06/26 07:07:06;;;;;;;24.52;6.38;;;;;;;27.58;43.53;93883.56;5069616;28;20472;-62
2021/06/26 07:09:32;;;;;;;32.83;7.40;;;;;;;27.59;43.56;93892.53;5070865;28;20056;-62
2021/06/26 07:11:58;;;;;;;32.42;5.60;;;;;;;27.64;43.41;93894.78;5066581;28;20025;-62
2021/06/26 07:14:24;;;;;;;35.92;7.72;;;;;;;27.74;43.54;93882.84;5051106;28;20049;-61
2021/06/26 07:16:49;;;;;;;32.85;5.93;;;;;;;27.84;42.57;93880.31;5050916;28;20033;-61
2021/06/26 07:19:15;;;;;;;35.05;6.40;;;;;;;27.87;42.92;93879.50;5061443;28;20024;-61
2021/06/26 07:21:40;;;;;;;30.58;5.50;;;;;;;27.92;42.72;93879.75;5071047;28;20043;-62
2021/06/26 07:24:06;;;;;;;34.05;5.93;;;;;;;28.04;42.99;93875.59;5069471;28;20028;-62
2021/06/26 07:26:32;;;;;;;33.13;7.10;;;;;;;28.07;42.35;93877.50;5070993;28;20443;-62
2021/06/26 07:28:57;;;;;;;32.28;7.25;;;;;;;28.16;42.00;93883.16;5071063;28;20163;-62
2021/06/26 07:31:23;;;;;;;33.58;8.60;;;;;;;28.24;42.08;93891.22;5070662;28;20036;-62
2021/06/26 07:33:48;;;;;;;30.40;5.63;;;;;;;28.29;41.95;93879.72;5070816;28;21090;-62
2021/06/26 07:36:14;;;;;;;18.45;5.13;;;;;;;28.37;42.39;93889.34;5070551;28;20123;-62
2021/06/26 07:38:39;;;;;;;30.23;6.32;;;;;;;28.45;41.03;93887.97;5070583;28;20103;-62
2021/06/26 07:41:05;;;;;;;24.20;5.13;;;;;;;28.50;40.75;93884.75;5070782;28;20024;-61
2021/06/26 07:43:30;;;;;;;20.90;5.10;;;;;;;28.58;40.97;93883.41;5070465;28;20503;-62
2021/06/26 07:45:55;;;;;;;24.38;6.07;;;;;;;28.66;40.90;93886.75;5070263;28;20024;-62
2021/06/26 07:48:21;;;;;;;29.70;5.22;;;;;;;28.77;41.61;93883.72;5068743;28;20028;-62
2021/06/26 07:50:50;;;;;;;24.75;5.60;;;;;;;28.89;41.78;93879.53;5070428;28;20020;-63
2021/06/26 07:53:16;;;;;;;32.28;5.85;;;;;;;28.89;38.17;93885.78;5070390;28;20020;-63
2021/06/26 07:55:42;;;;;;;26.13;5.38;;;;;;;28.91;38.32;93891.59;5070253;28;20021;-63
2021/06/26 07:58:07;;;;;;;26.73;5.90;;;;;;;28.88;37.19;93889.72;5070348;28;20108;-62
2021/06/26 08:00:32;;;;;;;26.92;5.85;;;;;;;28.86;37.94;93892.09;5070463;28;20043;-64
2021/06/26 08:02:58;;;;;;;29.55;5.93;;;;;;;28.86;38.31;93886.63;5070564;28;20021;-62
2021/06/26 08:05:23;;;;;;;35.97;4.88;;;;;;;28.87;37.38;93893.66;5070468;28;20480;-65
2021/06/26 08:07:49;;;;;;;25.52;5.40;;;;;;;28.89;37.39;93891.25;5070369;28;20426;-63
2021/06/26 08:10:14;;;;;;;21.77;4.63;;;;;;;28.90;35.51;93892.03;5070013;28;20396;-63
2021/06/26 08:12:40;;;;;;;25.38;4.72;;;;;;;28.92;35.28;93886.88;5068528;28;20028;-62
2021/06/26 08:15:06;;;;;;;30.45;4.68;;;;;;;28.97;34.41;93886.38;5069413;28;20071;-63
2021/06/26 08:17:31;;;;;;;32.90;5.90;;;;;;;28.96;35.98;93891.09;5069646;28;20050;-62
2021/06/26 08:19:57;;;;;;;29.10;4.75;;;;;;;29.06;35.38;93888.50;5070102;28;20032;-63
2021/06/26 08:22:22;;;;;;;27.75;4.47;;;;;;;29.07;35.11;93884.56;5069561;28;20407;-63
2021/06/26 08:24:48;;;;;;;24.40;4.78;;;;;;;29.08;33.47;93886.84;5069867;28;20024;-63
2021/06/26 08:27:13;;;;;;;25.17;4.13;;;;;;;29.06;32.70;93886.50;5069669;28;20027;-63
2021/06/26 08:29:38;;;;;;;24.85;3.95;;;;;;;29.15;33.00;93880.47;5069435;28;20039;-62
2021/06/26 08:32:04;;;;;;;30.73;4.70;;;;;;;29.30;33.23;93881.59;5069540;28;20028;-62
2021/06/26 08:34:30;;;;;;;28.52;3.45;;;;;;;29.46;31.83;93877.28;5060312;28;20021;-62
2021/06/26 08:36:55;;;;;;;26.25;4.28;;;;;;;29.55;31.30;93878.19;5070445;28;20537;-77
2021/06/26 08:39:21;;;;;;;18.30;4.45;;;;;;;29.63;31.02;93881.50;5070768;28;20515;-76
2021/06/26 08:41:48;;;;;;;27.33;3.65;;;;;;;29.72;28.94;93878.94;5067527;28;20415;-76
2021/06/26 08:44:17;;;;;;;22.50;3.72;;;;;;;29.76;28.92;93879.59;5068196;28;20043;-76
2021/06/26 08:46:45;;;;;;;22.70;4.07;;;;;;;29.75;29.21;93872.53;5069871;28;20032;-75
2021/06/26 08:49:11;;;;;;;32.38;3.72;;;;;;;29.77;30.16;93880.34;5070314;28;20055;-76
2021/06/26 08:51:37;;;;;;;27.77;3.78;;;;;;;29.83;29.38;93875.88;5068956;28;20063;-76
2021/06/26 08:54:02;;;;;;;23.52;3.90;;;;;;;29.90;28.66;93872.13;5068827;28;20056;-75
2021/06/26 08:56:28;;;;;;;22.27;3.20;;;;;;;29.97;29.17;93866.44;5070076;28;20498;-76
2021/06/26 08:58:53;;;;;;;23.65;3.35;;;;;;;30.10;29.32;93875.44;5068594;28;20380;-75
2021/06/26 09:01:19;;;;;;;30.15;3.65;;;;;;;30.22;28.88;93871.19;5050067;28;20565;-75
2021/06/26 09:03:44;;;;;;;32.55;3.65;;;;;;;30.28;27.57;93866.66;5048737;28;20025;-76
2021/06/26 09:06:10;;;;;;;23.33;4.13;;;;;;;30.29;28.03;93870.97;5048526;28;20029;-75
2021/06/26 09:08:35;;;;;;;21.08;3.03;;;;;;;30.39;28.63;93869.13;5050036;28;20064;-75
2021/06/26 09:11:00;;;;;;;25.20;2.85;;;;;;;30.49;27.96;93864.47;5048658;28;20033;-75
2021/06/26 09:13:32;;;;;;;22.38;4.05;;;;;;;30.48;28.23;93860.97;5049573;28;20048;-76
2021/06/26 09:16:11;;;;;;;22.73;3.63;;;;;;;30.58;28.68;93859.09;5048418;28;20029;-76
2021/06/26 09:18:40;;;;;;;27.08;4.57;;;;;;;30.71;28.76;93861.81;5049562;28;20444;-76
2021/06/26 09:21:23;;;;;;;22.45;3.28;;;;;;;30.66;29.62;93867.91;5049721;28;20108;-76
2021/06/26 09:24:00;;;;;;;20.38;3.63;;;;;;;30.53;27.18;93852.19;5049954;28;20432;-76
2021/06/26 09:26:26;;;;;;;23.52;3.92;;;;;;;30.54;28.90;93848.22;5059469;28;20025;-76
2021/06/26 09:28:52;;;;;;;31.38;4.35;;;;;;;30.62;28.91;93850.75;5069739;28;20020;-76
2021/06/26 09:31:20;;;;;;;20.90;4.28;;;;;;;30.69;28.74;93850.50;5068470;28;20055;-76
2021/06/26 09:34:00;;;;;;;15.70;3.15;;;;;;;30.75;27.51;93840.47;5070042;28;20027;-75
2021/06/26 09:36:30;;;;;;;20.70;3.63;;;;;;;30.79;27.82;93839.13;5069529;28;20039;-76
2021/06/26 09:39:02;;;;;;;30.85;4.90;;;;;;;30.84;28.62;93846.06;5068391;28;20169;-76
2021/06/26 09:41:28;;;;;;;24.58;4.40;;;;;;;30.87;27.55;93834.16;5070157;28;20032;-76
2021/06/26 09:43:54;;;;;;;24.13;3.28;;;;;;;30.97;28.52;93824.81;5073569;28;20067;-76
2021/06/26 09:46:21;;;;;;;26.90;4.03;;;;;;;31.11;27.97;93831.81;5072114;28;20130;-71
2021/06/26 09:48:52;;;;;;;18.98;3.15;;;;;;;31.18;28.19;93828.03;5068268;28;20058;-70
2021/06/26 09:51:20;;;;;;;22.52;4.13;;;;;;;31.20;27.42;93828.34;5057484;28;20020;-71
2021/06/26 09:54:01;;;;;;;20.20;4.00;;;;;;;31.32;27.24;93827.53;5051927;28;20044;-71
2021/06/26 09:56:45;;;;;;;21.13;3.53;;;;;;;31.35;27.71;93821.13;5069737;28;20035;-70
2021/06/26 09:59:13;;;;;;;25.58;4.07;;;;;;;31.29;26.78;93822.94;5062871;28;20025;-71
2021/06/26 10:01:42;;;;;;;18.25;4.95;;;;;;;31.31;26.72;93809.47;5053111;28;20029;-71
2021/06/26 10:04:12;;;;;;;27.52;3.65;;;;;;;31.40;27.40;93823.28;5070924;28;20475;-71
2021/06/26 10:06:37;;;;;;;15.80;3.80;;;;;;;31.43;25.23;93818.09;5055448;28;20028;-76
2021/06/26 10:09:05;;;;;;;26.65;3.00;;;;;;;31.41;25.55;93813.06;5056369;28;20032;-71
2021/06/26 10:11:32;;;;;;;29.50;4.78;;;;;;;31.46;24.96;93817.25;5054615;28;20433;-71
2021/06/26 10:14:04;;;;;;;22.80;2.95;;;;;;;31.33;25.24;93814.53;5072813;28;20059;-70
2021/06/26 10:16:30;;;;;;;17.38;3.53;;;;;;;31.37;25.70;93815.94;5071504;28;20182;-71
2021/06/26 10:19:04;;;;;;;14.50;3.05;;;;;;;31.31;26.70;93814.22;5070428;28;20029;-71
2021/06/26 10:21:30;;;;;;;18.70;3.38;;;;;;;31.33;24.38;93809.78;5055595;28;20101;-71
2021/06/26 10:23:58;;;;;;;30.77;4.32;;;;;;;31.28;25.15;93810.34;5051495;28;20374;-71
2021/06/26 10:26:24;;;;;;;23.38;4.97;;;;;;;31.30;26.23;93801.66;5051465;28;20373;-71
2021/06/26 10:28:53;;;;;;;20.70;3.20;;;;;;;31.39;25.99;93808.00;5052248;28;20037;-71
2021/06/26 10:31:36;;;;;;;21.20;3.38;;;;;;;31.29;28.08;93806.41;5056913;28;20103;-71
2021/06/26 10:34:25;;;;;;;27.52;4.88;;;;;;;31.38;27.49;93803.69;5066599;28;20032;-71
2021/06/26 10:36:54;;;;;;;30.63;3.70;;;;;;;31.44;25.75;93803.91;5057920;28;20036;-71
2021/06/26 10:39:25;;;;;;;19.02;3.72;;;;;;;31.42;26.97;93797.31;5071070;28;20130;-71
2021/06/26 10:42:05;;;;;;;26.90;3.85;;;;;;;31.44;25.33;93794.88;5059281;28;20491;-70
2021/06/26 10:44:46;;;;;;;31.10;4.53;;;;;;;31.44;25.73;93797.63;5066399;28;20091;-71
2021/06/26 10:47:13;;;;;;;23.05;3.33;;;;;;;31.57;24.70;93803.88;5054527;28;20012;-72
2021/06/26 10:49:40;;;;;;;27.73;4.18;;;;;;;31.66;25.08;93794.88;5063420;28;20029;-71
2021/06/26 10:52:07;;;;;;;15.48;3.60;;;;;;;31.76;26.11;93801.97;5059478;28;20039;-71
2021/06/26 10:54:32;;;;;;;24.30;4.35;;;;;;;31.94;24.78;93795.78;5062027;28;20032;-71
2021/06/26 10:57:06;;;;;;;30.00;3.53;;;;;;;32.03;25.56;93790.31;5071665;28;20498;-71
2021/06/26 10:59:32;;;;;;;27.67;3.50;;;;;;;32.07;24.55;93773.66;5065900;28;20029;-71
2021/06/26 11:02:00;;;;;;;16.50;3.63;;;;;;;32.06;24.68;93783.94;5067087;28;20017;-70
2021/06/26 11:04:26;;;;;;;22.60;4.32;;;;;;;32.14;25.33;93774.16;5054744;28;20047;-71
2021/06/26 11:07:08;;;;;;;25.20;3.63;;;;;;;32.25;24.12;93779.22;5070611;28;20055;-70
2021/06/26 11:09:37;;;;;;;27.90;3.30;;;;;;;32.09;25.25;93783.00;5060966;28;20032;-71
2021/06/26 11:12:12;;;;;;;28.13;4.00;;;;;;;32.01;24.40;93783.75;5064670;28;20484;-71
2021/06/26 11:14:48;;;;;;;27.88;5.10;;;;;;;31.98;26.05;93766.88;5056660;28;20522;-70
2021/06/26 11:17:13;;;;;;;28.40;4.50;;;;;;;32.13;26.80;93774.59;5063845;28;20388;-71
2021/06/26 11:19:39;;;;;;;24.35;4.10;;;;;;;32.31;25.66;93762.84;5056975;28;20032;-71
2021/06/26 11:22:04;;;;;;;27.40;4.05;;;;;;;32.43;24.14;93766.72;5054529;28;20027;-71